createdAt,value
2019-02-08T00:01:31.233Z,16.90
2019-02-08T00:04:02.832Z,14.10
2019-02-08T00:06:35.464Z,16.07
2019-02-08T00:09:08.383Z,15.60
2019-02-08T00:11:40.392Z,16.17
2019-02-08T00:14:12.243Z,15.80
2019-02-08T00:16:44.166Z,16.33
2019-02-08T00:19:15.936Z,14.97
2019-02-08T00:21:47.689Z,14.80
2019-02-08T00:24:19.515Z,12.80
2019-02-08T00:26:51.515Z,15.93
2019-02-08T00:29:23.918Z,12.77
2019-02-08T00:31:55.581Z,16.07
2019-02-08T00:34:27.179Z,13.47
2019-02-08T00:36:58.904Z,16.37
2019-02-08T00:39:30.899Z,12.57
2019-02-08T00:42:02.484Z,14.20
2019-02-08T00:44:34.072Z,14.10
2019-02-08T00:47:06.098Z,14.07
2019-02-08T00:49:37.693Z,12.67
2019-02-08T00:52:09.294Z,16.17
2019-02-08T00:54:41.022Z,12.67
2019-02-08T00:57:12.616Z,13.40
2019-02-08T00:59:44.790Z,11.83
2019-02-08T01:02:16.419Z,14.73
2019-02-08T01:04:48.097Z,14.97
2019-02-08T01:07:19.831Z,15.23
2019-02-08T01:09:51.501Z,12.47
2019-02-08T01:12:24.159Z,13.53
2019-02-08T01:14:56.224Z,13.97
2019-02-08T01:17:27.879Z,14.53
2019-02-08T01:19:59.759Z,12.67
2019-02-08T01:22:32.417Z,12.70
2019-02-08T01:25:05.568Z,13.13
2019-02-08T01:27:37.394Z,14.27
2019-02-08T01:30:21.811Z,12.77
2019-02-08T01:32:53.418Z,14.07
2019-02-08T01:35:25.234Z,12.97
2019-02-08T01:37:58.047Z,12.03
2019-02-08T01:40:33.634Z,13.83
2019-02-08T01:43:06.545Z,11.53
2019-02-08T01:45:38.438Z,14.30
2019-02-08T01:48:10.101Z,13.23
2019-02-08T01:50:42.245Z,12.57
2019-02-08T01:53:13.977Z,14.83
2019-02-08T01:55:45.660Z,13.50
2019-02-08T01:58:17.403Z,13.97
2019-02-08T02:00:49.071Z,13.43
2019-02-08T02:03:20.784Z,13.67
2019-02-08T02:05:52.949Z,11.73
2019-02-08T02:08:24.533Z,11.53
2019-02-08T02:10:56.110Z,13.80
2019-02-08T02:13:27.780Z,12.00
2019-02-08T02:15:59.468Z,14.40
2019-02-08T02:18:31.182Z,13.97
2019-02-08T02:21:03.332Z,14.50
2019-02-08T02:23:34.920Z,15.30
2019-02-08T02:26:06.507Z,15.63
2019-02-08T02:28:38.178Z,13.47
2019-02-08T02:31:10.884Z,11.63
2019-02-08T02:33:42.501Z,14.43
2019-02-08T02:36:14.082Z,13.77
2019-02-08T02:38:45.753Z,12.00
2019-02-08T02:41:17.380Z,14.83
2019-02-08T02:43:48.950Z,11.07
2019-02-08T02:46:20.563Z,12.23
2019-02-08T02:48:52.237Z,12.07
2019-02-08T02:51:23.894Z,11.13
2019-02-08T02:53:55.485Z,12.23
2019-02-08T02:56:27.091Z,12.97
2019-02-08T02:58:58.735Z,12.67
2019-02-08T03:01:30.497Z,12.30
2019-02-08T03:04:02.095Z,11.67
2019-02-08T03:06:33.692Z,12.27
2019-02-08T03:09:07.460Z,14.43
2019-02-08T03:11:40.106Z,13.80
2019-02-08T03:14:11.768Z,12.03
2019-02-08T03:16:43.413Z,10.57
2019-02-08T03:19:15.026Z,11.33
2019-02-08T03:21:46.931Z,11.67
2019-02-08T03:24:18.582Z,11.90
2019-02-08T03:26:50.269Z,11.97
2019-02-08T03:29:21.945Z,12.57
2019-02-08T03:31:53.610Z,11.53
2019-02-08T03:34:25.209Z,12.83
2019-02-08T03:36:56.805Z,12.00
2019-02-08T03:39:28.382Z,11.13
2019-02-08T03:42:00.050Z,11.03
2019-02-08T03:44:31.728Z,12.73
2019-02-08T03:47:03.401Z,12.53
2019-02-08T03:49:35.111Z,12.30
2019-02-08T03:52:06.746Z,12.53
2019-02-08T03:54:38.311Z,11.67
2019-02-08T03:57:09.899Z,12.73
2019-02-08T03:59:41.502Z,11.53
2019-02-08T04:02:13.347Z,12.57
2019-02-08T04:04:45.007Z,12.20
2019-02-08T04:07:16.603Z,12.93
2019-02-08T04:09:48.341Z,13.23
2019-02-08T04:12:19.935Z,11.70
2019-02-08T04:14:51.549Z,10.70
2019-02-08T04:17:23.156Z,12.50
2019-02-08T04:19:54.837Z,15.17
2019-02-08T04:22:26.493Z,11.80
2019-02-08T04:24:58.207Z,10.43
2019-02-08T04:27:42.299Z,13.03
2019-02-08T04:30:27.161Z,11.27
2019-02-08T04:33:00.333Z,11.17
2019-02-08T04:35:31.942Z,12.03
2019-02-08T04:38:03.621Z,13.67
2019-02-08T04:40:35.338Z,11.87
2019-02-08T04:43:06.931Z,12.57
2019-02-08T04:45:38.854Z,12.40
2019-02-08T04:48:10.537Z,11.43
2019-02-08T04:50:42.110Z,12.20
2019-02-08T04:53:13.783Z,12.10
2019-02-08T04:55:45.477Z,11.03
2019-02-08T04:58:17.092Z,11.03
2019-02-08T05:00:48.898Z,11.40
2019-02-08T05:03:20.490Z,11.80
2019-02-08T05:05:52.105Z,10.40
2019-02-08T05:08:23.971Z,11.10
2019-02-08T05:10:55.688Z,11.50
2019-02-08T05:13:27.292Z,10.67
2019-02-08T05:15:59.110Z,11.13
2019-02-08T05:18:32.073Z,12.63
2019-02-08T05:21:07.190Z,14.93
2019-02-08T05:23:39.158Z,14.17
2019-02-08T05:26:10.751Z,12.77
2019-02-08T05:28:43.967Z,11.47
2019-02-08T05:31:15.591Z,12.50
2019-02-08T05:33:47.190Z,11.63
2019-02-08T05:36:19.265Z,14.77
2019-02-08T05:38:50.930Z,15.07
2019-02-08T05:41:22.583Z,15.33
2019-02-08T05:43:54.169Z,14.83
2019-02-08T05:46:25.942Z,12.13
2019-02-08T05:48:57.547Z,13.00
2019-02-08T05:51:29.595Z,13.73
2019-02-08T05:54:01.263Z,14.50
2019-02-08T05:56:33.027Z,14.00
2019-02-08T05:59:04.988Z,13.43
2019-02-08T06:01:36.746Z,12.90
2019-02-08T06:04:08.570Z,15.77
2019-02-08T06:06:40.518Z,12.97
2019-02-08T06:09:12.107Z,14.13
2019-02-08T06:11:43.685Z,15.27
2019-02-08T06:14:15.804Z,13.67
2019-02-08T06:16:47.599Z,13.00
2019-02-08T06:19:19.194Z,15.57
2019-02-08T06:21:50.849Z,13.77
2019-02-08T06:24:22.446Z,12.73
2019-02-08T06:26:54.136Z,14.03
2019-02-08T06:29:25.873Z,13.40
2019-02-08T06:31:57.735Z,12.57
2019-02-08T06:34:29.363Z,12.50
2019-02-08T06:37:02.651Z,14.27
2019-02-08T06:39:35.895Z,13.30
2019-02-08T06:42:07.477Z,11.97
2019-02-08T06:44:39.260Z,12.53
2019-02-08T06:47:11.127Z,11.90
2019-02-08T06:49:42.798Z,12.63
2019-02-08T06:52:14.393Z,11.87
2019-02-08T06:54:46.200Z,12.87
2019-02-08T06:57:19.436Z,12.73
2019-02-08T06:59:52.694Z,12.00
2019-02-08T07:02:26.362Z,12.47
2019-02-08T07:05:15.766Z,13.20
2019-02-08T07:07:55.206Z,14.43
2019-02-08T07:10:28.510Z,14.67
2019-02-08T07:13:14.696Z,13.87
2019-02-08T07:15:50.654Z,14.60
2019-02-08T07:18:23.891Z,14.23
2019-02-08T07:21:03.214Z,14.80
2019-02-08T07:23:39.485Z,16.90
2019-02-08T07:26:19.287Z,16.60
2019-02-08T07:29:08.223Z,14.93
2019-02-08T07:31:41.832Z,15.83
2019-02-08T07:34:31.599Z,15.93
2019-02-08T07:37:05.022Z,13.47
2019-02-08T07:39:55.848Z,16.63
2019-02-08T07:42:30.167Z,16.20
2019-02-08T07:45:09.598Z,14.53
2019-02-08T07:47:44.407Z,20.50
2019-02-08T07:50:21.879Z,14.70
2019-02-08T07:53:15.621Z,14.80
2019-02-08T07:55:58.361Z,15.80
2019-02-08T07:58:48.308Z,13.70
2019-02-08T08:01:27.521Z,15.07
2019-02-08T08:04:03.625Z,13.77
2019-02-08T08:06:36.820Z,16.63
2019-02-08T08:09:26.419Z,14.70
2019-02-08T08:11:59.672Z,16.30
2019-02-08T08:14:49.027Z,15.77
2019-02-08T08:17:33.238Z,12.80
2019-02-08T08:20:16.457Z,14.77
2019-02-08T08:23:09.263Z,15.73
2019-02-08T08:25:58.628Z,13.27
2019-02-08T08:28:48.195Z,16.37
2019-02-08T08:31:24.243Z,16.07
2019-02-08T08:34:12.445Z,12.47
2019-02-08T08:37:03.803Z,15.43
2019-02-08T08:39:55.274Z,15.07
2019-02-08T08:42:37.497Z,17.10
2019-02-08T08:45:20.012Z,16.77
2019-02-08T08:48:23.205Z,13.27
2019-02-08T08:51:09.372Z,17.97
2019-02-08T08:54:05.428Z,16.47
2019-02-08T08:57:00.900Z,14.60
2019-02-08T08:59:42.724Z,13.20
2019-02-08T09:02:46.007Z,16.27
2019-02-08T09:05:49.776Z,14.77
2019-02-08T09:08:38.554Z,13.43
2019-02-08T09:11:42.060Z,16.17
2019-02-08T09:14:21.292Z,15.67
2019-02-08T09:17:23.056Z,14.67
2019-02-08T09:20:34.238Z,14.03
2019-02-08T09:23:37.421Z,14.40
2019-02-08T09:26:22.750Z,11.47
2019-02-08T09:29:13.832Z,12.83
2019-02-08T09:32:36.039Z,13.97
2019-02-08T09:35:29.528Z,15.47
2019-02-08T09:38:48.215Z,14.17
2019-02-08T09:41:50.485Z,13.93
2019-02-08T09:45:03.578Z,16.37
2019-02-08T09:48:10.043Z,13.80
2019-02-08T09:50:55.551Z,14.50
2019-02-08T09:53:54.932Z,14.73
2019-02-08T09:56:46.405Z,10.90
2019-02-08T09:59:40.530Z,11.37
2019-02-08T10:02:28.404Z,11.33
2019-02-08T10:05:10.438Z,14.50
2019-02-08T10:08:09.223Z,13.03
2019-02-08T10:11:26.678Z,11.10
2019-02-08T10:14:21.004Z,11.30
2019-02-08T10:17:39.821Z,11.57
2019-02-08T10:20:49.475Z,12.10
2019-02-08T10:23:59.297Z,13.80
2019-02-08T10:27:24.439Z,10.67
2019-02-08T10:30:46.619Z,12.17
2019-02-08T10:33:52.435Z,12.77
2019-02-08T10:36:51.304Z,13.50
2019-02-08T10:39:48.773Z,12.83
2019-02-08T10:42:53.684Z,11.73
2019-02-08T10:45:58.348Z,12.77
2019-02-08T10:48:54.661Z,11.37
2019-02-08T10:52:00.077Z,11.87
2019-02-08T10:55:13.366Z,11.37
2019-02-08T10:58:23.768Z,10.87
2019-02-08T11:01:32.928Z,10.57
2019-02-08T11:04:33.525Z,10.40
2019-02-08T11:07:43.513Z,11.43
2019-02-08T11:10:51.476Z,12.43
2019-02-08T11:14:10.585Z,11.43
2019-02-08T11:17:40.546Z,11.17
2019-02-08T11:20:12.231Z,9.80
2019-02-08T11:22:43.982Z,10.80
2019-02-08T11:25:15.550Z,10.97
2019-02-08T11:27:48.020Z,10.87
2019-02-08T11:30:19.692Z,28.10
2019-02-08T11:32:51.293Z,22.23
2019-02-08T11:35:23.381Z,12.03
2019-02-08T11:37:55.588Z,8.93
2019-02-08T11:40:27.428Z,8.77
2019-02-08T11:42:59.020Z,8.03
2019-02-08T11:45:30.654Z,8.63
2019-02-08T11:48:02.249Z,9.20
2019-02-08T11:50:34.907Z,8.53
2019-02-08T11:53:06.979Z,8.60
2019-02-08T11:55:38.612Z,9.60
2019-02-08T11:58:10.210Z,9.70
2019-02-08T12:00:43.439Z,8.87
2019-02-08T12:03:15.021Z,8.20
2019-02-08T12:05:46.782Z,10.47
2019-02-08T12:08:18.527Z,9.67
2019-02-08T12:10:50.793Z,11.13
2019-02-08T12:13:22.464Z,8.40
2019-02-08T12:15:54.195Z,9.17
2019-02-08T12:18:25.940Z,9.00
2019-02-08T12:20:57.528Z,7.87
2019-02-08T12:23:29.106Z,8.43
2019-02-08T12:26:00.696Z,7.33
2019-02-08T12:28:35.086Z,9.07
2019-02-08T12:31:10.619Z,7.70
2019-02-08T12:33:43.627Z,7.10
2019-02-08T12:36:15.387Z,7.53
2019-02-08T12:38:47.456Z,7.93
2019-02-08T12:41:19.142Z,7.67
2019-02-08T12:43:51.387Z,8.70
2019-02-08T12:46:23.030Z,6.20
2019-02-08T12:48:54.674Z,8.57
2019-02-08T12:51:26.267Z,7.93
2019-02-08T12:53:57.982Z,9.00
2019-02-08T12:56:29.573Z,7.90
2019-02-08T12:59:01.298Z,9.40
2019-02-08T13:01:37.728Z,8.33
2019-02-08T13:04:06.410Z,8.13
2019-02-08T13:06:38.090Z,6.90
2019-02-08T13:09:11.106Z,6.40
2019-02-08T13:11:42.686Z,8.20
2019-02-08T13:14:14.341Z,6.97
2019-02-08T13:16:45.930Z,7.37
2019-02-08T13:19:17.550Z,6.57
2019-02-08T13:21:49.146Z,7.40
2019-02-08T13:24:20.726Z,8.63
2019-02-08T13:26:53.060Z,6.63
2019-02-08T13:29:24.939Z,7.40
2019-02-08T13:31:56.541Z,7.57
2019-02-08T13:34:41.097Z,7.17
2019-02-08T13:37:12.675Z,6.53
2019-02-08T13:39:44.748Z,6.90
2019-02-08T13:42:19.415Z,7.07
2019-02-08T13:44:51.307Z,8.10
2019-02-08T13:47:23.993Z,6.03
2019-02-08T13:49:55.608Z,6.37
2019-02-08T13:52:27.338Z,7.27
2019-02-08T13:54:59.396Z,7.77
2019-02-08T13:57:30.993Z,6.60
2019-02-08T14:00:03.486Z,6.73
2019-02-08T14:02:35.134Z,6.77
2019-02-08T14:05:08.428Z,7.30
2019-02-08T14:07:40.499Z,6.53
2019-02-08T14:10:20.865Z,6.67
2019-02-08T14:12:52.859Z,6.97
2019-02-08T14:15:26.206Z,8.30
2019-02-08T14:17:57.880Z,8.13
2019-02-08T14:20:30.003Z,5.80
2019-02-08T14:23:07.277Z,6.00
2019-02-08T14:25:41.686Z,5.83
2019-02-08T14:28:13.381Z,5.70
2019-02-08T14:30:45.058Z,7.50
2019-02-08T14:33:16.752Z,6.40
2019-02-08T14:35:48.509Z,6.33
2019-02-08T14:38:20.829Z,5.90
2019-02-08T14:40:52.419Z,6.73
2019-02-08T14:43:25.723Z,7.77
2019-02-08T14:45:57.426Z,7.30
2019-02-08T14:48:29.165Z,7.17
2019-02-08T14:51:00.822Z,6.30
2019-02-08T14:53:32.553Z,8.20
2019-02-08T14:56:04.196Z,7.40
2019-02-08T14:58:35.841Z,7.73
2019-02-08T15:01:07.522Z,7.43
2019-02-08T15:03:39.098Z,7.37
2019-02-08T15:06:10.899Z,7.77
2019-02-08T15:08:42.567Z,7.73
2019-02-08T15:11:14.173Z,8.30
2019-02-08T15:13:46.391Z,7.50
2019-02-08T15:16:19.372Z,7.57
2019-02-08T15:18:51.175Z,7.50
2019-02-08T15:21:22.852Z,6.67
2019-02-08T15:23:54.455Z,7.37
2019-02-08T15:26:26.044Z,7.37
2019-02-08T15:28:57.769Z,7.83
2019-02-08T15:31:29.437Z,9.47
2019-02-08T15:34:01.078Z,8.53
2019-02-08T15:36:32.776Z,7.63
2019-02-08T15:39:06.137Z,8.33
2019-02-08T15:41:37.782Z,8.53
2019-02-08T15:44:09.364Z,7.77
2019-02-08T15:46:41.146Z,8.60
2019-02-08T15:49:12.823Z,8.80
2019-02-08T15:51:45.316Z,9.27
2019-02-08T15:54:19.359Z,10.00
2019-02-08T15:56:51.972Z,11.37
2019-02-08T15:59:23.679Z,10.43
2019-02-08T16:01:55.309Z,9.73
2019-02-08T16:04:26.995Z,8.83
2019-02-08T16:06:58.703Z,9.33
2019-02-08T16:09:30.405Z,10.03
2019-02-08T16:12:02.075Z,10.30
2019-02-08T16:14:33.755Z,11.77
2019-02-08T16:17:06.152Z,9.17
2019-02-08T16:19:37.731Z,9.20
2019-02-08T16:22:09.509Z,10.57
2019-02-08T16:24:41.186Z,10.67
2019-02-08T16:27:12.995Z,14.03
2019-02-08T16:29:45.241Z,17.87
2019-02-08T16:32:16.821Z,14.33
2019-02-08T16:34:49.315Z,16.33
2019-02-08T16:37:21.096Z,13.60
2019-02-08T16:39:52.881Z,12.90
2019-02-08T16:42:24.534Z,15.27
2019-02-08T16:44:57.939Z,14.77
2019-02-08T16:47:29.604Z,17.93
2019-02-08T16:50:01.181Z,16.47
2019-02-08T16:52:32.796Z,16.90
2019-02-08T16:55:07.094Z,13.87
2019-02-08T16:57:38.754Z,16.90
2019-02-08T17:00:29.842Z,19.00
2019-02-08T17:03:05.145Z,17.50
2019-02-08T17:05:36.942Z,16.53
2019-02-08T17:08:08.553Z,13.80
2019-02-08T17:10:40.605Z,14.87
2019-02-08T17:13:13.645Z,10.97
2019-02-08T17:15:45.283Z,12.50
2019-02-08T17:18:17.321Z,11.40
2019-02-08T17:20:50.607Z,12.83
2019-02-08T17:23:22.858Z,11.73
2019-02-08T17:25:54.513Z,10.87
2019-02-08T17:28:26.206Z,11.70
2019-02-08T17:30:57.882Z,11.90
2019-02-08T17:33:29.502Z,14.27
2019-02-08T17:36:01.066Z,10.83
2019-02-08T17:38:33.830Z,11.77
2019-02-08T17:41:05.514Z,11.77
2019-02-08T17:43:37.456Z,10.57
2019-02-08T17:46:13.532Z,11.07
2019-02-08T17:49:03.483Z,11.93
2019-02-08T17:51:38.452Z,11.80
2019-02-08T17:54:13.317Z,13.67
2019-02-08T17:56:45.492Z,12.57
2019-02-08T17:59:17.123Z,12.83
2019-02-08T18:01:48.739Z,12.67
2019-02-08T18:04:20.340Z,13.93
2019-02-08T18:06:52.455Z,14.57
2019-02-08T18:09:25.136Z,13.70
2019-02-08T18:11:57.031Z,14.70
2019-02-08T18:14:28.767Z,14.50
2019-02-08T18:17:00.339Z,13.07
2019-02-08T18:19:32.005Z,15.37
2019-02-08T18:22:03.826Z,16.40
2019-02-08T18:24:35.428Z,13.43
2019-02-08T18:27:07.128Z,14.70
2019-02-08T18:29:38.800Z,13.17
2019-02-08T18:32:10.579Z,13.13
2019-02-08T18:34:42.332Z,14.20
2019-02-08T18:37:13.930Z,15.90
2019-02-08T18:39:45.598Z,16.60
2019-02-08T18:42:17.206Z,15.07
2019-02-08T18:44:48.912Z,15.17
2019-02-08T18:47:20.490Z,14.63
2019-02-08T18:49:52.162Z,14.43
2019-02-08T18:52:23.832Z,15.17
2019-02-08T18:54:56.378Z,15.53
2019-02-08T18:57:27.975Z,16.43
2019-02-08T18:59:59.581Z,18.03
2019-02-08T19:02:31.247Z,17.00
2019-02-08T19:05:02.868Z,16.63
2019-02-08T19:07:34.937Z,16.60
2019-02-08T19:10:11.726Z,16.93
2019-02-08T19:12:43.343Z,18.60
2019-02-08T19:15:21.769Z,16.83
2019-02-08T19:17:53.423Z,18.93
2019-02-08T19:20:28.321Z,19.43
2019-02-08T19:23:00.025Z,18.10
2019-02-08T19:25:37.528Z,19.67
2019-02-08T19:28:11.338Z,21.53
2019-02-08T19:30:45.487Z,18.27
2019-02-08T19:33:17.217Z,19.17
2019-02-08T19:35:50.924Z,20.67
2019-02-08T19:38:23.273Z,21.30
2019-02-08T19:40:54.845Z,18.33
2019-02-08T19:43:48.107Z,17.47
2019-02-08T19:46:43.536Z,18.00
2019-02-08T19:49:18.119Z,14.57
2019-02-08T19:51:54.787Z,15.60
2019-02-08T19:54:27.491Z,15.60
2019-02-08T19:56:59.221Z,15.90
2019-02-08T19:59:30.888Z,20.57
2019-02-08T20:02:02.489Z,15.87
2019-02-08T20:04:34.069Z,16.97
2019-02-08T20:07:05.816Z,14.03
2019-02-08T20:09:37.557Z,14.57
2019-02-08T20:12:09.191Z,13.57
2019-02-08T20:14:40.751Z,13.13
2019-02-08T20:17:12.352Z,13.80
2019-02-08T20:19:43.951Z,14.10
2019-02-08T20:22:15.534Z,14.33
2019-02-08T20:24:47.185Z,13.17
2019-02-08T20:27:18.849Z,13.77
2019-02-08T20:29:50.456Z,13.27
2019-02-08T20:32:22.032Z,13.13
2019-02-08T20:34:53.810Z,13.50
2019-02-08T20:37:25.644Z,14.53
2019-02-08T20:39:57.596Z,13.07
2019-02-08T20:42:29.196Z,15.13
2019-02-08T20:45:01.119Z,14.13
2019-02-08T20:47:32.791Z,14.47
2019-02-08T20:50:08.339Z,12.93
2019-02-08T20:52:40.251Z,14.50
2019-02-08T20:55:12.600Z,12.17
2019-02-08T20:57:44.485Z,14.03
2019-02-08T21:00:27.239Z,13.60
2019-02-08T21:05:46.240Z,12.53
2019-02-08T21:08:18.527Z,12.40
2019-02-08T21:10:50.287Z,13.87
2019-02-08T21:13:22.030Z,12.30
2019-02-08T21:15:53.893Z,14.53
2019-02-08T21:18:39.761Z,11.47
2019-02-08T21:21:14.676Z,14.33
2019-02-08T21:23:46.584Z,13.67
2019-02-08T21:26:18.348Z,14.20
2019-02-08T21:28:57.993Z,14.97
2019-02-08T21:31:26.184Z,15.40
2019-02-08T21:33:57.774Z,15.17
2019-02-08T21:36:39.492Z,17.17
2019-02-08T21:39:18.091Z,14.63
2019-02-08T21:41:54.134Z,15.70
2019-02-08T21:47:21.782Z,15.67
2019-02-08T21:49:56.326Z,14.83
2019-02-08T21:52:33.537Z,15.83
2019-02-08T21:55:13.764Z,14.30
2019-02-08T21:57:50.594Z,16.47
2019-02-08T22:00:31.242Z,16.10
2019-02-08T22:03:12.860Z,19.97
2019-02-08T22:05:58.159Z,19.10
2019-02-08T22:08:30.269Z,22.13
2019-02-08T22:11:01.937Z,24.03
2019-02-08T22:13:33.677Z,21.37
2019-02-08T22:16:05.522Z,18.47
2019-02-08T22:18:37.234Z,20.17
2019-02-08T22:21:08.886Z,15.33
2019-02-08T22:23:40.648Z,17.30
2019-02-08T22:26:12.306Z,16.90
2019-02-08T22:28:45.766Z,15.60
2019-02-08T22:31:18.179Z,17.13
2019-02-08T22:33:49.980Z,14.53
2019-02-08T22:36:21.632Z,14.03
2019-02-08T22:38:53.372Z,16.20
2019-02-08T22:41:24.970Z,15.90
2019-02-08T22:43:56.600Z,14.00
2019-02-08T22:46:28.281Z,13.73
2019-02-08T22:48:59.849Z,14.57
2019-02-08T22:51:32.204Z,15.07
2019-02-08T22:54:04.005Z,14.47
2019-02-08T22:56:35.719Z,12.40
2019-02-08T22:59:07.397Z,13.87
2019-02-08T23:01:39.384Z,13.30
2019-02-08T23:04:11.560Z,14.57
2019-02-08T23:06:45.032Z,15.03
2019-02-08T23:09:23.243Z,11.83
2019-02-08T23:11:55.887Z,13.37
2019-02-08T23:14:27.520Z,13.13
2019-02-08T23:16:59.870Z,17.10
2019-02-08T23:19:31.536Z,13.60
2019-02-08T23:22:03.185Z,17.83
2019-02-08T23:24:34.847Z,15.70
2019-02-08T23:27:06.592Z,17.90
2019-02-08T23:29:39.433Z,13.13
2019-02-08T23:32:11.070Z,14.47
2019-02-08T23:34:42.653Z,14.57
2019-02-08T23:37:14.329Z,10.97
2019-02-08T23:39:45.934Z,13.93
2019-02-08T23:42:18.679Z,11.13
2019-02-08T23:44:50.328Z,15.10
2019-02-08T23:47:24.829Z,14.87
2019-02-08T23:49:59.878Z,12.73
2019-02-08T23:52:31.634Z,16.07
2019-02-08T23:55:03.287Z,12.77
2019-02-08T23:57:34.979Z,14.30
